createdAt,value
2023-03-21T00:01:22.576Z,38.75
2023-03-21T00:06:25.608Z,36.00
2023-03-21T00:11:29.776Z,40.40
2023-03-21T00:16:34.993Z,38.00
2023-03-21T00:21:51.902Z,37.50
2023-03-21T00:27:15.841Z,38.00
2023-03-21T00:32:23.300Z,32.80
2023-03-21T00:37:28.249Z,35.60
2023-03-21T00:42:32.678Z,37.40
2023-03-21T00:47:35.550Z,35.80
2023-03-21T00:52:41.344Z,35.40
2023-03-21T00:57:50.214Z,34.00
2023-03-21T01:03:17.586Z,35.20
2023-03-21T01:08:31.246Z,34.20
2023-03-21T01:13:44.179Z,39.80
2023-03-21T01:18:59.592Z,33.20
2023-03-21T01:24:02.636Z,31.20
2023-03-21T01:29:06.739Z,26.40
2023-03-21T01:34:09.568Z,30.20
2023-03-21T01:39:12.780Z,30.40
2023-03-21T01:44:17.806Z,30.60
2023-03-21T01:49:26.039Z,34.80
2023-03-21T01:54:38.517Z,29.20
2023-03-21T01:59:44.467Z,27.20
2023-03-21T02:04:59.490Z,29.60
2023-03-21T02:10:07.753Z,30.60
2023-03-21T02:15:12.627Z,27.20
2023-03-21T02:20:49.505Z,30.60
2023-03-21T02:26:28.491Z,25.80
2023-03-21T02:31:41.817Z,31.60
2023-03-21T02:36:56.286Z,25.80
2023-03-21T02:42:03.696Z,32.20
2023-03-21T02:47:11.086Z,28.20
2023-03-21T02:52:28.615Z,28.60
2023-03-21T02:57:42.670Z,27.00
2023-03-21T03:02:54.544Z,23.60
2023-03-21T03:08:14.226Z,26.80
2023-03-21T03:13:23.117Z,25.60
2023-03-21T03:18:29.141Z,30.60
2023-03-21T03:23:36.703Z,26.40
2023-03-21T03:28:40.308Z,23.40
2023-03-21T03:33:51.671Z,25.00
2023-03-21T03:38:56.115Z,27.20
2023-03-21T03:44:00.070Z,21.00
2023-03-21T03:49:06.577Z,24.00
2023-03-21T03:54:12.798Z,21.40
2023-03-21T03:59:19.395Z,22.60
2023-03-21T04:04:35.110Z,20.40
2023-03-21T04:09:44.647Z,22.00
2023-03-21T04:14:51.919Z,24.40
2023-03-21T04:20:05.448Z,24.60
2023-03-21T04:25:21.902Z,22.00
2023-03-21T04:30:34.090Z,21.60
2023-03-21T04:35:45.956Z,21.20
2023-03-21T04:40:51.816Z,27.20
2023-03-21T04:45:54.814Z,21.40
2023-03-21T04:50:57.699Z,21.40
2023-03-21T04:56:01.829Z,23.60
2023-03-21T05:01:05.786Z,20.80
2023-03-21T05:06:09.548Z,22.20
2023-03-21T05:11:13.780Z,20.00
2023-03-21T05:16:16.588Z,24.00
2023-03-21T05:21:20.418Z,20.00
2023-03-21T05:26:27.003Z,19.40
2023-03-21T05:31:43.257Z,21.80
2023-03-21T05:36:49.610Z,20.40
2023-03-21T05:41:54.642Z,20.40
2023-03-21T05:46:57.607Z,20.00
2023-03-21T05:52:07.660Z,17.40
2023-03-21T05:57:12.131Z,18.80
2023-03-21T06:02:28.199Z,22.40
2023-03-21T06:07:35.419Z,17.00
2023-03-21T06:12:39.935Z,15.80
2023-03-21T06:17:55.811Z,18.60
2023-03-21T06:22:58.904Z,17.40
2023-03-21T06:28:03.184Z,16.20
2023-03-21T06:33:07.091Z,17.80
2023-03-21T06:38:10.000Z,16.00
2023-03-21T06:43:16.105Z,17.00
2023-03-21T06:48:19.790Z,16.80
2023-03-21T06:53:27.369Z,15.00
2023-03-21T06:58:50.163Z,16.40
2023-03-21T07:04:20.824Z,15.00
2023-03-21T07:09:28.028Z,15.40
2023-03-21T07:14:35.205Z,15.60
2023-03-21T07:19:38.243Z,17.60
2023-03-21T07:24:41.095Z,13.40
2023-03-21T07:29:47.249Z,13.40
2023-03-21T07:34:50.233Z,17.40
2023-03-21T07:39:53.264Z,17.60
2023-03-21T07:44:57.932Z,15.80
2023-03-21T07:50:00.756Z,15.40
2023-03-21T07:55:04.890Z,13.40
2023-03-21T08:00:11.092Z,12.40
2023-03-21T08:05:19.353Z,12.20
2023-03-21T08:10:22.281Z,9.00
2023-03-21T08:15:26.505Z,11.40
2023-03-21T08:20:29.249Z,9.80
2023-03-21T08:25:32.293Z,7.80
2023-03-21T08:30:36.426Z,8.20
2023-03-21T08:35:41.140Z,7.20
2023-03-21T08:40:44.400Z,6.00
2023-03-21T08:45:48.733Z,5.20
2023-03-21T08:50:51.503Z,6.00
2023-03-21T08:55:54.347Z,6.00
2023-03-21T09:00:58.555Z,4.00
2023-03-21T09:06:02.682Z,5.60
2023-03-21T09:11:06.051Z,4.80
2023-03-21T09:16:11.000Z,5.40
2023-03-21T09:21:14.660Z,4.40
2023-03-21T09:26:17.718Z,5.00
2023-03-21T09:31:22.885Z,3.80
2023-03-21T09:36:26.239Z,4.40
2023-03-21T09:42:04.629Z,3.80
2023-03-21T09:47:14.096Z,4.00
2023-03-21T09:52:20.293Z,4.20
2023-03-21T09:57:29.763Z,5.00
2023-03-21T10:02:38.687Z,5.60
2023-03-21T10:07:42.537Z,4.40
2023-03-21T10:12:46.088Z,2.40
2023-03-21T10:17:54.444Z,5.00
2023-03-21T10:22:57.871Z,4.00
2023-03-21T10:28:01.319Z,4.20
2023-03-21T10:33:09.642Z,4.60
2023-03-21T10:38:16.953Z,5.40
2023-03-21T10:43:31.148Z,3.40
2023-03-21T10:48:40.629Z,4.40
2023-03-21T10:53:47.577Z,3.00
2023-03-21T10:58:52.698Z,4.40
2023-03-21T11:03:59.404Z,3.60
2023-03-21T11:09:04.669Z,4.40
2023-03-21T11:14:09.453Z,3.00
2023-03-21T11:19:17.727Z,3.00
2023-03-21T11:24:20.822Z,4.00
2023-03-21T11:29:29.026Z,5.00
2023-03-21T11:34:43.649Z,3.40
2023-03-21T11:39:46.825Z,6.20
2023-03-21T11:44:49.602Z,4.20
2023-03-21T11:50:04.213Z,3.80
2023-03-21T11:55:15.932Z,3.00
2023-03-21T12:00:22.372Z,2.80
2023-03-21T12:05:28.129Z,7.40
2023-03-21T12:10:37.479Z,8.00
2023-03-21T12:15:42.898Z,7.40
2023-03-21T12:20:47.834Z,5.80
2023-03-21T12:25:54.898Z,5.80
2023-03-21T12:31:00.008Z,5.00
2023-03-21T12:36:22.491Z,4.60
2023-03-21T12:41:27.381Z,4.20
2023-03-21T12:46:33.887Z,5.60
2023-03-21T12:51:40.860Z,3.00
2023-03-21T12:56:48.234Z,3.60
2023-03-21T13:01:52.624Z,2.80
2023-03-21T13:06:56.718Z,3.00
2023-03-21T13:11:59.759Z,3.40
2023-03-21T13:17:03.306Z,4.20
2023-03-21T13:22:08.935Z,3.60
2023-03-21T13:27:20.008Z,5.00
2023-03-21T13:32:26.502Z,2.40
2023-03-21T13:37:33.358Z,2.00
2023-03-21T13:42:36.557Z,3.40
2023-03-21T13:47:42.145Z,2.00
2023-03-21T13:52:51.128Z,2.00
2023-03-21T13:57:54.366Z,2.60
2023-03-21T14:02:59.416Z,2.00
2023-03-21T14:08:17.189Z,3.00
2023-03-21T14:13:25.927Z,2.00
2023-03-21T14:18:52.225Z,2.00
2023-03-21T14:24:01.034Z,3.80
2023-03-21T14:29:07.162Z,8.60
2023-03-21T14:34:12.678Z,9.80
2023-03-21T14:39:18.978Z,9.00
2023-03-21T14:44:25.585Z,7.00
2023-03-21T14:49:29.140Z,5.40
2023-03-21T14:54:33.759Z,6.00
2023-03-21T14:59:37.965Z,5.00
2023-03-21T15:04:41.343Z,6.20
2023-03-21T15:09:45.788Z,5.00
2023-03-21T15:14:48.692Z,5.60
2023-03-21T15:19:51.568Z,5.00
2023-03-21T15:24:58.362Z,4.20
2023-03-21T15:30:01.384Z,3.00
2023-03-21T15:35:09.384Z,5.40
2023-03-21T15:40:22.268Z,5.00
2023-03-21T15:45:26.189Z,6.00
2023-03-21T15:50:33.756Z,6.00
2023-03-21T15:55:43.600Z,5.40
2023-03-21T16:00:52.754Z,6.00
2023-03-21T16:06:05.287Z,5.80
2023-03-21T16:11:13.226Z,6.40
2023-03-21T16:16:17.571Z,6.00
2023-03-21T16:21:21.505Z,7.00
2023-03-21T16:26:27.504Z,5.40
2023-03-21T16:31:32.062Z,5.80
2023-03-21T16:36:36.547Z,5.20
2023-03-21T16:41:40.919Z,6.00
2023-03-21T16:46:43.803Z,6.00
2023-03-21T16:51:46.613Z,4.80
2023-03-21T16:56:51.531Z,5.00
2023-03-21T17:01:54.483Z,5.40
2023-03-21T17:06:57.308Z,5.60
2023-03-21T17:12:01.813Z,5.80
2023-03-21T17:17:04.902Z,6.00
2023-03-21T17:22:07.759Z,6.80
2023-03-21T17:27:14.853Z,6.00
2023-03-21T17:32:18.337Z,9.60
2023-03-21T17:37:21.957Z,8.00
2023-03-21T17:42:26.362Z,7.00
2023-03-21T17:47:31.091Z,6.00
2023-03-21T17:52:34.500Z,6.20
2023-03-21T17:57:38.694Z,6.80
2023-03-21T18:02:41.777Z,5.00
2023-03-21T18:13:09.394Z,5.60
2023-03-21T18:18:12.341Z,5.80
2023-03-21T18:23:15.425Z,5.60
2023-03-21T18:28:21.242Z,6.40
2023-03-21T18:33:24.360Z,5.20
2023-03-21T18:38:27.579Z,5.00
2023-03-21T18:48:55.244Z,5.60
2023-03-21T18:54:00.839Z,5.00
2023-03-21T18:59:05.135Z,5.00
2023-03-21T19:04:21.274Z,3.40
2023-03-21T19:09:31.250Z,3.40
2023-03-21T19:14:36.168Z,5.80
2023-03-21T19:19:39.376Z,4.20
2023-03-21T19:24:43.004Z,4.20
2023-03-21T19:30:02.892Z,4.20
2023-03-21T19:35:10.090Z,2.80
2023-03-21T19:40:13.668Z,5.80
2023-03-21T19:45:18.050Z,5.00
2023-03-21T19:50:49.344Z,3.40
2023-03-21T19:55:44.463Z,3.40
2023-03-21T20:00:48.857Z,5.00
2023-03-21T20:05:51.629Z,3.40
2023-03-21T20:10:54.647Z,3.80
2023-03-21T20:16:03.735Z,4.60
2023-03-21T20:21:16.971Z,5.00
2023-03-21T20:26:21.040Z,3.00
2023-03-21T20:31:25.308Z,3.00
2023-03-21T20:36:43.889Z,3.00
2023-03-21T20:41:46.855Z,3.00
2023-03-21T20:46:51.234Z,4.60
2023-03-21T20:57:17.942Z,3.40
2023-03-21T21:08:41.039Z,3.00
2023-03-21T21:13:45.345Z,2.80
2023-03-21T21:18:48.958Z,2.60
2023-03-21T21:23:53.067Z,2.20
2023-03-21T21:28:58.010Z,2.00
2023-03-21T21:34:03.050Z,2.00
2023-03-21T21:39:08.102Z,2.80
2023-03-21T21:44:11.017Z,3.80
2023-03-21T21:49:13.790Z,3.00
2023-03-21T21:54:19.015Z,3.00
2023-03-21T21:59:24.327Z,4.20
2023-03-21T22:04:28.536Z,2.20
2023-03-21T22:09:32.785Z,2.00
2023-03-21T22:14:35.819Z,2.00
2023-03-21T22:19:40.209Z,3.00
2023-03-21T22:24:44.692Z,2.00
2023-03-21T22:29:47.437Z,3.00
2023-03-21T22:34:50.265Z,3.00
2023-03-21T22:39:54.401Z,3.80
2023-03-21T22:44:57.118Z,2.00
2023-03-21T22:49:59.959Z,3.00
2023-03-21T22:55:04.266Z,2.00
2023-03-21T23:00:13.071Z,3.00
2023-03-21T23:05:15.993Z,3.80
2023-03-21T23:10:20.439Z,2.00
2023-03-21T23:15:23.379Z,2.40
2023-03-21T23:20:26.154Z,4.60
2023-03-21T23:25:30.306Z,1.00
2023-03-21T23:30:33.117Z,2.20
2023-03-21T23:35:38.210Z,2.80
2023-03-21T23:40:42.609Z,1.00
2023-03-21T23:45:45.939Z,2.00
2023-03-21T23:50:49.006Z,3.00
2023-03-21T23:55:53.142Z,2.00
